Portada
METAR-TAF:

METAR-TAF

Aeroports :

Gove Peninsula, Austràlia

latitud: 12-16-12S, longitud: 136-49-06E, altitud: 62 m

Observació

L'informe es va fer fa 14 minuts, a les 12:00 UTC
Vent 4 kt del Sud-Est
Temperatura 22°C
Humitat 88%
Pressió 1016 hPa
Visibilitat 10 km o més

METAR: YPGV 181200Z AUTO 14004KT 9999 // NCD 22/20 Q1016

Hora: 21:44 (12:14 UTC)

Pronòstic

L'informe es va fer fa 5 hores i 23 minuts, a les 06:51 UTC
Pronòstic vàlid del 18 a les 08 UTC al 18 a les 20 UTC
Vent 10 kt del Est
Visibilitat 10 km o més
Escasses núvols a una alçada de 2000 ft

TAF: YPGV 180651Z 1808/1820 10010KT 9999 FEW020

Observacions i pronòstics meteorològics de més de 4000 aeroports (METAR i TAF).

Les estacions disponibles són els punts grocs i vermells al mapa.

Posi el ratolí al punt desitjat per veure el nom de l'estació.

Feu clic per veure les observacions i els pronòstics meteorològics.

Per canviar el mapa: feu clic els botons verds amb una creu de color negre per apropar; al botó verd amb un guió per allunyar la imatge; o en les fletxes verdes per a mapes adjacents.


METAR-TAF: